Terminal Aerodrome Forecast
Issued by NWS

Home | Current Version | Previous Version | Text Only | Print | Product List | Glossary On
Versions: 1 2 3 4 5 6 7 8 9 10 11 12 13 14 15
000
FTUS44 KSJT 180500
TAFJCT
TAF
KJCT 180520Z 1806/1906 VRB04KT P6SM OVC015
     FM180800 VRB03KT 6SM BR OVC007
     FM181500 09005KT P6SM OVC015
     FM181800 10005KT P6SM OVC050
     FM182300 10006KT P6SM OVC250=

USA.gov is the U.S. government's official web portal to all federal, state and local government web resources and services.